createdAt,value
2022-12-15T00:02:21.711Z,84.67
2022-12-15T00:05:08.552Z,84.86
2022-12-15T00:07:53.888Z,84.93
2022-12-15T00:10:39.191Z,84.31
2022-12-15T00:13:29.314Z,84.91
2022-12-15T00:16:14.938Z,84.32
2022-12-15T00:18:59.827Z,84.07
2022-12-15T00:21:46.885Z,85.30
2022-12-15T00:24:32.313Z,86.76
2022-12-15T00:27:17.492Z,87.23
2022-12-15T00:30:02.675Z,86.20
2022-12-15T00:32:47.920Z,85.40
2022-12-15T00:35:33.209Z,85.43
2022-12-15T00:38:25.489Z,85.43
2022-12-15T00:40:58.838Z,85.17
2022-12-15T00:43:26.811Z,84.72
2022-12-15T00:46:11.919Z,85.68
2022-12-15T00:48:39.733Z,85.77
2022-12-15T00:51:06.836Z,85.39
2022-12-15T00:53:53.187Z,85.32
2022-12-15T00:56:38.465Z,85.78
2022-12-15T00:59:23.843Z,86.07
2022-12-15T01:02:09.070Z,86.33
2022-12-15T01:04:54.220Z,85.53
2022-12-15T01:07:39.368Z,85.46
2022-12-15T01:10:26.814Z,84.83
2022-12-15T01:13:12.180Z,84.28
2022-12-15T01:15:57.920Z,84.67
2022-12-15T01:18:43.725Z,84.96
2022-12-15T01:21:17.413Z,85.72
2022-12-15T01:23:45.078Z,84.81
2022-12-15T01:26:14.134Z,85.17
2022-12-15T01:28:41.797Z,84.30
2022-12-15T01:31:12.994Z,84.85
2022-12-15T01:33:42.551Z,85.19
2022-12-15T01:36:11.216Z,84.90
2022-12-15T01:38:38.948Z,85.17
2022-12-15T01:41:08.208Z,85.54
2022-12-15T01:43:38.939Z,84.37
2022-12-15T01:46:07.830Z,85.08
2022-12-15T01:48:40.765Z,84.17
2022-12-15T01:51:24.903Z,83.65
2022-12-15T01:53:58.844Z,83.79
2022-12-15T01:56:32.428Z,83.24
2022-12-15T01:59:05.858Z,83.54
2022-12-15T02:01:33.615Z,83.38
2022-12-15T02:04:01.838Z,83.96
2022-12-15T02:06:30.797Z,82.70
2022-12-15T02:09:01.482Z,83.17
2022-12-15T02:11:43.885Z,83.28
2022-12-15T02:14:20.724Z,83.67
2022-12-15T02:16:58.744Z,83.50
2022-12-15T02:19:54.574Z,84.53
2022-12-15T02:22:33.068Z,85.14
2022-12-15T02:25:21.938Z,84.60
2022-12-15T02:27:57.781Z,85.00
2022-12-15T02:30:36.439Z,84.16
2022-12-15T02:33:28.653Z,84.27
2022-12-15T02:36:01.091Z,84.94
2022-12-15T02:38:33.768Z,85.17
2022-12-15T02:41:03.212Z,85.60
2022-12-15T02:43:34.355Z,85.72
2022-12-15T02:46:15.712Z,84.62
2022-12-15T02:48:54.379Z,84.14
2022-12-15T02:51:35.011Z,83.87
2022-12-15T02:54:23.077Z,84.09
2022-12-15T02:57:03.905Z,84.23
2022-12-15T02:59:39.570Z,84.16
2022-12-15T03:02:10.791Z,83.51
2022-12-15T03:04:38.556Z,83.36
2022-12-15T03:07:10.155Z,83.24
2022-12-15T03:09:37.880Z,85.55
2022-12-15T03:12:05.986Z,85.95
2022-12-15T03:14:33.615Z,86.34
2022-12-15T03:17:01.352Z,86.34
2022-12-15T03:19:30.485Z,86.35
2022-12-15T03:21:58.166Z,86.25
2022-12-15T03:24:25.783Z,86.47
2022-12-15T03:26:53.410Z,87.66
2022-12-15T03:29:21.047Z,87.61
2022-12-15T03:31:50.050Z,87.11
2022-12-15T03:34:18.426Z,85.94
2022-12-15T03:36:47.783Z,85.78
2022-12-15T03:39:15.473Z,85.47
2022-12-15T03:41:43.093Z,84.49
2022-12-15T03:44:10.867Z,84.61
2022-12-15T03:46:38.486Z,84.95
2022-12-15T03:49:06.275Z,84.98
2022-12-15T03:51:33.952Z,85.23
2022-12-15T03:54:02.976Z,85.61
2022-12-15T03:56:30.651Z,85.95
2022-12-15T03:58:58.368Z,85.26
2022-12-15T04:01:29.720Z,85.03
2022-12-15T04:04:00.944Z,84.14
2022-12-15T04:06:29.691Z,84.72
2022-12-15T04:08:57.485Z,86.88
2022-12-15T04:11:26.467Z,87.32
2022-12-15T04:13:54.125Z,86.89
2022-12-15T04:16:21.830Z,86.15
2022-12-15T04:19:10.901Z,86.96
2022-12-15T04:21:37.565Z,87.63
2022-12-15T04:24:23.823Z,87.84
2022-12-15T04:27:10.258Z,87.86
2022-12-15T04:29:55.719Z,87.85
2022-12-15T04:32:41.455Z,86.18
2022-12-15T04:35:27.704Z,86.14
2022-12-15T04:38:12.887Z,86.34
2022-12-15T04:40:58.160Z,86.10
2022-12-15T04:43:44.729Z,86.53
2022-12-15T04:46:30.152Z,87.43
2022-12-15T04:49:15.181Z,87.70
2022-12-15T04:52:00.470Z,87.36
2022-12-15T04:54:45.636Z,87.38
2022-12-15T04:57:30.987Z,88.51
2022-12-15T05:00:17.589Z,89.94
2022-12-15T05:03:02.792Z,88.81
2022-12-15T05:05:48.117Z,90.23
2022-12-15T05:08:33.318Z,90.13
2022-12-15T05:11:18.553Z,90.35
2022-12-15T05:14:03.910Z,89.71
2022-12-15T05:16:50.517Z,89.88
2022-12-15T05:19:35.861Z,90.39
2022-12-15T05:22:21.242Z,89.91
2022-12-15T05:25:06.551Z,90.40
2022-12-15T05:27:51.872Z,90.94
2022-12-15T05:30:37.223Z,90.63
2022-12-15T05:33:07.044Z,90.12
2022-12-15T05:35:34.784Z,90.83
2022-12-15T05:38:02.421Z,90.10
2022-12-15T05:40:30.215Z,90.42
2022-12-15T05:42:59.059Z,90.09
2022-12-15T05:45:26.925Z,90.66
2022-12-15T05:47:55.741Z,90.76
2022-12-15T05:50:25.024Z,90.88
2022-12-15T05:52:52.841Z,91.40
2022-12-15T05:55:20.788Z,91.84
2022-12-15T05:57:52.366Z,91.25
2022-12-15T06:00:20.820Z,91.35
2022-12-15T06:02:49.765Z,91.62
2022-12-15T06:05:17.768Z,92.06
2022-12-15T06:07:46.904Z,93.34
2022-12-15T06:10:14.871Z,95.08
2022-12-15T06:12:42.516Z,94.04
2022-12-15T06:15:11.033Z,93.15
2022-12-15T06:17:38.643Z,93.89
2022-12-15T06:20:07.238Z,95.03
2022-12-15T06:22:34.933Z,95.14
2022-12-15T06:25:04.150Z,93.68
2022-12-15T06:27:31.800Z,93.37
2022-12-15T06:29:59.493Z,94.43
2022-12-15T06:32:27.182Z,94.09
2022-12-15T06:34:54.913Z,92.69
2022-12-15T06:37:22.578Z,92.48
2022-12-15T06:39:50.218Z,92.42
2022-12-15T06:42:19.167Z,92.87
2022-12-15T06:44:46.769Z,93.21
2022-12-15T06:47:18.250Z,93.34
2022-12-15T06:49:45.860Z,94.31
2022-12-15T06:52:13.555Z,94.11
2022-12-15T06:54:41.356Z,93.41
2022-12-15T06:57:08.947Z,93.50
2022-12-15T06:59:37.991Z,93.60
2022-12-15T07:02:05.996Z,92.80
2022-12-15T07:04:33.866Z,92.83
2022-12-15T07:07:01.515Z,93.87
2022-12-15T07:09:29.135Z,93.62
2022-12-15T07:11:56.803Z,92.36
2022-12-15T07:14:25.751Z,92.70
2022-12-15T07:16:55.009Z,91.67
2022-12-15T07:19:22.643Z,90.57
2022-12-15T07:21:50.428Z,90.56
2022-12-15T07:24:18.032Z,90.80
2022-12-15T07:26:46.082Z,90.14
2022-12-15T07:29:23.024Z,90.04
2022-12-15T07:31:51.278Z,89.59
2022-12-15T07:34:20.378Z,89.31
2022-12-15T07:36:52.134Z,89.24
2022-12-15T07:39:20.498Z,89.23
2022-12-15T07:41:48.351Z,88.55
2022-12-15T07:44:16.135Z,88.70
2022-12-15T07:46:46.763Z,88.04
2022-12-15T07:49:14.802Z,87.97
2022-12-15T07:51:44.005Z,88.27
2022-12-15T07:54:12.579Z,88.39
2022-12-15T07:56:40.413Z,88.18
2022-12-15T07:59:08.785Z,88.52
2022-12-15T08:01:36.741Z,87.25
2022-12-15T08:04:06.064Z,86.57
2022-12-15T08:06:33.746Z,86.80
2022-12-15T08:09:03.087Z,87.78
2022-12-15T08:11:34.420Z,88.18
2022-12-15T08:14:04.005Z,87.50
2022-12-15T08:16:34.538Z,88.25
2022-12-15T08:19:02.465Z,87.81
2022-12-15T08:21:31.149Z,86.84
2022-12-15T08:24:00.698Z,87.62
2022-12-15T08:26:31.312Z,86.40
2022-12-15T08:29:31.803Z,87.46
2022-12-15T08:31:51.568Z,87.29
2022-12-15T08:34:19.326Z,86.97
2022-12-15T08:36:47.039Z,86.75
2022-12-15T08:39:14.781Z,85.56
2022-12-15T08:41:43.823Z,85.60
2022-12-15T08:44:11.475Z,84.95
2022-12-15T08:46:39.846Z,84.78
2022-12-15T08:49:08.636Z,85.33
2022-12-15T08:51:36.303Z,85.71
2022-12-15T08:54:04.012Z,86.63
2022-12-15T08:56:31.728Z,86.27
2022-12-15T08:59:02.271Z,85.59
2022-12-15T09:01:31.871Z,86.75
2022-12-15T09:04:01.289Z,86.94
2022-12-15T09:06:30.847Z,86.43
2022-12-15T09:09:00.023Z,86.58
2022-12-15T09:11:29.103Z,86.09
2022-12-15T09:13:57.564Z,85.95
2022-12-15T09:16:30.847Z,85.78
2022-12-15T09:19:00.499Z,85.99
2022-12-15T09:21:30.574Z,86.98
2022-12-15T09:24:00.599Z,86.88
2022-12-15T09:26:30.257Z,86.69
2022-12-15T09:28:58.175Z,87.15
2022-12-15T09:31:29.296Z,87.54
2022-12-15T09:33:58.752Z,87.29
2022-12-15T09:36:27.734Z,87.60
2022-12-15T09:38:55.702Z,87.80
2022-12-15T09:41:27.104Z,86.15
2022-12-15T09:43:59.216Z,86.37
2022-12-15T09:46:43.162Z,86.42
2022-12-15T09:49:19.550Z,86.39
2022-12-15T09:51:51.748Z,86.69
2022-12-15T09:54:20.684Z,85.98
2022-12-15T09:56:54.132Z,85.68
2022-12-15T09:59:31.047Z,85.91
2022-12-15T10:02:19.451Z,85.10
2022-12-15T10:04:55.709Z,85.18
2022-12-15T10:07:31.014Z,85.05
2022-12-15T10:09:58.962Z,85.12
2022-12-15T10:12:31.443Z,84.93
2022-12-15T10:15:13.711Z,85.35
2022-12-15T10:17:50.195Z,83.12
2022-12-15T10:20:21.170Z,84.35
2022-12-15T10:25:37.018Z,83.16
2022-12-15T10:28:28.686Z,82.24
2022-12-15T10:31:00.084Z,83.43
2022-12-15T10:33:36.060Z,82.82
2022-12-15T10:36:10.023Z,82.20
2022-12-15T10:38:40.383Z,82.12
2022-12-15T10:41:10.432Z,81.70
2022-12-15T10:43:40.446Z,81.66
2022-12-15T10:46:14.823Z,81.49
2022-12-15T10:48:48.571Z,81.76
2022-12-15T10:51:22.743Z,82.07
2022-12-15T10:53:54.072Z,81.75
2022-12-15T10:56:32.337Z,80.82
2022-12-15T10:59:02.775Z,80.45
2022-12-15T11:01:31.500Z,80.60
2022-12-15T11:04:01.385Z,80.32
2022-12-15T11:06:32.183Z,80.04
2022-12-15T11:09:10.052Z,79.70
2022-12-15T11:12:11.895Z,79.39
2022-12-15T11:14:46.030Z,78.57
2022-12-15T11:17:18.196Z,79.52
2022-12-15T11:19:59.824Z,78.45
2022-12-15T11:22:36.541Z,78.92
2022-12-15T11:25:11.895Z,77.44
2022-12-15T11:27:44.233Z,77.98
2022-12-15T11:30:15.279Z,76.92
2022-12-15T11:32:45.653Z,78.02
2022-12-15T11:35:23.184Z,76.05
2022-12-15T11:37:57.289Z,76.23
2022-12-15T11:40:36.249Z,75.15
2022-12-15T11:43:28.257Z,75.13
2022-12-15T11:46:08.929Z,76.97
2022-12-15T11:48:50.824Z,77.87
2022-12-15T11:51:26.217Z,77.35
2022-12-15T11:54:06.578Z,77.31
2022-12-15T11:56:35.302Z,75.45
2022-12-15T11:59:24.953Z,75.44
2022-12-15T12:02:05.120Z,75.10
2022-12-15T12:04:44.071Z,74.12
2022-12-15T12:07:25.351Z,75.42
2022-12-15T12:10:04.760Z,76.75
2022-12-15T12:12:39.929Z,77.16
2022-12-15T12:15:24.042Z,78.82
2022-12-15T12:17:56.513Z,79.02
2022-12-15T12:20:29.222Z,79.69
2022-12-15T12:23:03.385Z,80.10
2022-12-15T12:25:35.552Z,81.04
2022-12-15T12:28:07.888Z,80.77
2022-12-15T12:30:42.335Z,81.12
2022-12-15T12:33:17.953Z,80.82
2022-12-15T12:35:51.231Z,80.85
2022-12-15T12:38:26.010Z,80.88
2022-12-15T12:41:03.820Z,80.04
2022-12-15T12:46:26.420Z,80.37
2022-12-15T12:48:59.906Z,79.88
2022-12-15T12:51:30.719Z,79.13
2022-12-15T12:54:00.918Z,79.37
2022-12-15T12:56:36.727Z,79.42
2022-12-15T12:59:08.648Z,79.83
2022-12-15T13:01:38.366Z,80.18
2022-12-15T13:04:09.605Z,79.86
2022-12-15T13:07:01.421Z,80.04
2022-12-15T13:10:01.883Z,80.64
2022-12-15T13:12:53.480Z,80.20
2022-12-15T13:15:36.182Z,80.81
2022-12-15T13:18:12.170Z,81.63
2022-12-15T13:20:41.553Z,82.19
2022-12-15T13:23:36.709Z,82.20
2022-12-15T13:26:19.149Z,82.16
2022-12-15T13:28:51.596Z,81.81
2022-12-15T13:31:42.906Z,81.37
2022-12-15T13:34:25.846Z,81.82
2022-12-15T13:37:01.703Z,82.10
2022-12-15T13:39:56.395Z,82.44
2022-12-15T13:42:48.306Z,82.56
2022-12-15T13:45:50.584Z,83.00
2022-12-15T13:48:30.859Z,83.23
2022-12-15T13:51:04.726Z,84.14
2022-12-15T13:53:39.971Z,84.25
2022-12-15T13:56:22.276Z,83.72
2022-12-15T13:58:58.537Z,84.68
2022-12-15T14:01:32.242Z,84.95
2022-12-15T14:04:08.231Z,84.61
2022-12-15T14:06:39.595Z,84.57
2022-12-15T14:09:13.526Z,84.02
2022-12-15T14:11:53.273Z,84.44
2022-12-15T14:14:26.664Z,84.95
2022-12-15T14:16:58.671Z,84.88
2022-12-15T14:19:26.935Z,85.18
2022-12-15T14:21:56.299Z,85.21
2022-12-15T14:27:24.798Z,85.87
2022-12-15T14:30:13.652Z,85.90
2022-12-15T14:32:42.622Z,85.75
2022-12-15T14:35:15.609Z,86.15
2022-12-15T14:37:43.679Z,86.32
2022-12-15T14:40:16.222Z,86.80
2022-12-15T14:42:44.496Z,86.89
2022-12-15T14:45:20.849Z,86.84
2022-12-15T14:48:13.399Z,87.06
2022-12-15T14:50:46.939Z,87.54
2022-12-15T14:53:16.848Z,87.16
2022-12-15T14:55:44.683Z,87.05
2022-12-15T14:58:30.501Z,87.33
2022-12-15T15:01:00.343Z,87.27
2022-12-15T15:03:05.025Z,80.00
2022-12-15T15:03:10.262Z,84.29
2022-12-15T15:03:14.310Z,85.69
2022-12-15T15:03:37.176Z,87.84
2022-12-15T15:06:16.582Z,87.66
2022-12-15T15:08:47.893Z,87.95
2022-12-15T15:11:25.019Z,88.53
2022-12-15T15:13:56.513Z,88.89
2022-12-15T15:16:25.750Z,89.59
2022-12-15T15:18:56.079Z,89.77
2022-12-15T15:21:24.998Z,90.12
2022-12-15T15:24:00.370Z,89.63
2022-12-15T15:26:28.656Z,89.63
2022-12-15T15:28:56.791Z,89.61
2022-12-15T15:31:38.543Z,90.25
2022-12-15T15:34:08.790Z,90.49
2022-12-15T15:36:38.398Z,90.35
2022-12-15T15:39:13.073Z,90.11
2022-12-15T15:41:40.784Z,90.01
2022-12-15T15:44:14.385Z,89.38
2022-12-15T15:46:47.610Z,89.67
2022-12-15T15:49:19.070Z,90.35
2022-12-15T15:51:46.968Z,90.28
2022-12-15T15:54:17.402Z,90.57
2022-12-15T15:56:45.111Z,90.90
2022-12-15T15:59:14.311Z,90.59
2022-12-15T16:01:42.216Z,91.15
2022-12-15T16:04:11.492Z,92.02
2022-12-15T16:06:43.633Z,91.79
2022-12-15T16:09:16.680Z,91.84
2022-12-15T16:11:45.634Z,91.59
2022-12-15T16:14:14.195Z,91.33
2022-12-15T16:16:42.689Z,90.85
2022-12-15T16:19:12.000Z,91.04
2022-12-15T16:21:40.862Z,91.56
2022-12-15T16:24:12.220Z,91.77
2022-12-15T16:26:47.146Z,92.38
2022-12-15T16:29:17.467Z,92.05
2022-12-15T16:31:45.982Z,92.48
2022-12-15T16:34:16.482Z,92.11
2022-12-15T16:36:45.194Z,91.83
2022-12-15T16:39:27.786Z,91.97
2022-12-15T16:41:57.029Z,92.54
2022-12-15T16:44:25.642Z,93.06
2022-12-15T16:46:53.569Z,93.54
2022-12-15T16:49:22.701Z,93.92
2022-12-15T16:51:53.377Z,93.46
2022-12-15T16:54:23.413Z,93.10
2022-12-15T16:56:52.877Z,93.86
2022-12-15T16:59:32.988Z,94.35
2022-12-15T17:02:02.165Z,94.34
2022-12-15T17:04:31.330Z,94.31
2022-12-15T17:06:59.000Z,94.14
2022-12-15T17:09:26.901Z,93.94
2022-12-15T17:11:54.658Z,93.26
2022-12-15T17:14:22.377Z,92.89
2022-12-15T17:16:50.251Z,93.54
2022-12-15T17:19:21.362Z,92.83
2022-12-15T17:21:53.950Z,92.96
2022-12-15T17:24:22.809Z,93.44
2022-12-15T17:26:50.974Z,94.01
2022-12-15T17:29:22.696Z,94.98
2022-12-15T17:31:50.403Z,94.30
2022-12-15T17:34:30.069Z,93.96
2022-12-15T17:37:00.597Z,93.93
2022-12-15T17:39:29.019Z,94.05
2022-12-15T17:42:01.359Z,93.61
2022-12-15T17:44:34.303Z,95.13
2022-12-15T17:47:04.306Z,95.28
2022-12-15T17:49:36.164Z,95.68
2022-12-15T17:52:09.087Z,96.08
2022-12-15T17:54:36.790Z,95.43
2022-12-15T17:57:04.588Z,94.92
2022-12-15T17:59:32.570Z,94.80
2022-12-15T18:02:00.272Z,94.54
2022-12-15T18:04:28.077Z,94.44
2022-12-15T18:07:01.630Z,94.34
2022-12-15T18:09:31.420Z,93.89
2022-12-15T18:11:59.384Z,93.57
2022-12-15T18:14:28.673Z,91.58
2022-12-15T18:16:56.306Z,92.80
2022-12-15T18:19:24.209Z,93.67
2022-12-15T18:21:51.867Z,93.14
2022-12-15T18:24:21.509Z,93.07
2022-12-15T18:26:50.495Z,93.08
2022-12-15T18:29:18.944Z,93.85
2022-12-15T18:31:49.404Z,93.91
2022-12-15T18:34:21.015Z,93.96
2022-12-15T18:36:48.748Z,93.65
2022-12-15T18:39:23.128Z,93.26
2022-12-15T18:41:54.623Z,92.91
2022-12-15T18:44:24.768Z,92.63
2022-12-15T18:46:52.691Z,93.28
2022-12-15T18:49:23.043Z,93.53
2022-12-15T18:51:50.920Z,92.56
2022-12-15T18:54:20.970Z,93.81
2022-12-15T18:56:49.062Z,93.14
2022-12-15T18:59:19.676Z,92.86
2022-12-15T19:01:49.596Z,92.98
2022-12-15T19:04:17.324Z,92.88
2022-12-15T19:06:45.746Z,93.22
2022-12-15T19:09:16.584Z,93.08
2022-12-15T19:12:16.893Z,93.07
2022-12-15T19:14:46.995Z,93.12
2022-12-15T19:17:33.988Z,92.92
2022-12-15T19:20:19.756Z,93.67
2022-12-15T19:22:48.586Z,94.07
2022-12-15T19:25:25.538Z,93.44
2022-12-15T19:27:58.689Z,93.11
2022-12-15T19:30:29.901Z,93.26
2022-12-15T19:32:57.771Z,93.72
2022-12-15T19:35:27.203Z,93.38
2022-12-15T19:37:57.879Z,93.53
2022-12-15T19:40:29.321Z,93.24
2022-12-15T19:42:58.208Z,92.80
2022-12-15T19:45:29.501Z,92.39
2022-12-15T19:47:57.402Z,92.93
2022-12-15T19:50:27.348Z,93.18
2022-12-15T19:52:57.679Z,92.71
2022-12-15T19:55:28.046Z,93.24
2022-12-15T19:57:55.684Z,93.47
2022-12-15T20:00:24.688Z,93.54
2022-12-15T20:02:55.745Z,93.24
2022-12-15T20:05:24.115Z,93.04
2022-12-15T20:07:53.356Z,92.44
2022-12-15T20:10:29.344Z,92.57
2022-12-15T20:12:57.704Z,92.15
2022-12-15T20:15:26.565Z,92.12
2022-12-15T20:17:56.565Z,91.97
2022-12-15T20:20:25.510Z,91.64
2022-12-15T20:22:57.155Z,91.68
2022-12-15T20:25:27.234Z,91.33
2022-12-15T20:27:54.958Z,92.31
2022-12-15T20:30:25.024Z,92.21
2022-12-15T20:32:52.912Z,92.69
2022-12-15T20:35:23.366Z,91.79
2022-12-15T20:37:52.473Z,90.91
2022-12-15T20:40:23.799Z,91.01
2022-12-15T20:42:52.577Z,90.97
2022-12-15T20:45:23.229Z,90.94
2022-12-15T20:47:53.435Z,91.04
2022-12-15T20:50:26.914Z,90.95
2022-12-15T20:52:55.466Z,90.06
2022-12-15T20:55:23.294Z,90.72
2022-12-15T20:57:51.025Z,91.01
2022-12-15T21:00:19.394Z,90.92
2022-12-15T21:02:47.808Z,91.40
2022-12-15T21:05:19.806Z,91.36
2022-12-15T21:07:50.536Z,92.16
2022-12-15T21:10:20.052Z,92.80
2022-12-15T21:12:49.595Z,92.27
2022-12-15T21:15:19.487Z,92.04
2022-12-15T21:17:57.328Z,91.90
2022-12-15T21:20:35.752Z,92.07
2022-12-15T21:23:04.726Z,92.38
2022-12-15T21:25:32.544Z,92.22
2022-12-15T21:28:00.201Z,92.41
2022-12-15T21:30:27.966Z,92.48
2022-12-15T21:32:55.694Z,92.77
2022-12-15T21:35:26.153Z,92.71
2022-12-15T21:37:56.392Z,92.05
2022-12-15T21:40:29.398Z,92.16
2022-12-15T21:42:57.998Z,92.01
2022-12-15T21:45:27.086Z,91.45
2022-12-15T21:48:12.203Z,91.63
2022-12-15T21:50:40.926Z,92.31
2022-12-15T21:53:15.779Z,92.52
2022-12-15T21:55:46.415Z,91.81
2022-12-15T21:58:20.342Z,91.09
2022-12-15T22:00:48.251Z,90.47
2022-12-15T22:03:16.017Z,91.24
2022-12-15T22:05:43.694Z,91.21
2022-12-15T22:08:17.148Z,91.00
2022-12-15T22:10:47.692Z,90.93
2022-12-15T22:13:20.470Z,90.83
2022-12-15T22:15:50.634Z,89.82
2022-12-15T22:18:22.899Z,89.31
2022-12-15T22:20:52.386Z,89.53
2022-12-15T22:23:21.299Z,89.20
2022-12-15T22:25:54.125Z,89.17
2022-12-15T22:28:25.005Z,88.83
2022-12-15T22:30:54.002Z,89.62
2022-12-15T22:33:24.573Z,89.58
2022-12-15T22:35:53.227Z,89.97
2022-12-15T22:38:24.024Z,90.45
2022-12-15T22:40:55.664Z,89.79
2022-12-15T22:43:27.263Z,89.28
2022-12-15T22:45:56.449Z,89.31
2022-12-15T22:48:32.995Z,89.42
2022-12-15T22:51:01.042Z,89.33
2022-12-15T22:53:31.789Z,90.14
2022-12-15T22:56:02.351Z,91.33
2022-12-15T22:58:36.126Z,90.30
2022-12-15T23:01:06.862Z,90.11
2022-12-15T23:03:35.598Z,90.53
2022-12-15T23:06:04.672Z,90.46
2022-12-15T23:08:32.931Z,90.04
2022-12-15T23:11:19.479Z,90.13
2022-12-15T23:13:47.117Z,89.66
2022-12-15T23:16:21.219Z,90.01
2022-12-15T23:18:50.297Z,89.86
2022-12-15T23:21:20.989Z,89.28
2022-12-15T23:23:48.932Z,89.37
2022-12-15T23:26:19.640Z,89.05
2022-12-15T23:28:47.322Z,89.42
2022-12-15T23:31:14.976Z,90.53
2022-12-15T23:33:42.895Z,90.20
2022-12-15T23:36:11.023Z,89.92
2022-12-15T23:38:39.191Z,89.75
2022-12-15T23:41:07.031Z,89.22
2022-12-15T23:43:37.673Z,88.80
2022-12-15T23:46:07.624Z,88.95
2022-12-15T23:48:38.066Z,88.74
2022-12-15T23:51:08.068Z,88.80
2022-12-15T23:53:37.105Z,89.00
2022-12-15T23:56:07.296Z,88.95
2022-12-15T23:58:37.667Z,89.15
